Time;durP1;ratioP1;P1;durP2;ratioP2;P2;SDS_P1;SDS_P2;PMS_P1;PMS_P2;Temp;Humidity;BMP_temperature;BMP_pressure;BME280_temperature;BME280_humidity;BME280_pressure;Samples;Min_cycle;Max_cycle;Signal;HPM_P1;HPM_P2
2022/08/28 00:00:07;;;;;;;14.32;7.65;;;;;;;;;;6119361;23;20170;-88
2022/08/28 00:03:13;;;;;;;14.27;8.32;;;;;;;;;;6119064;23;20237;-88
2022/08/28 00:06:19;;;;;;;11.32;8.10;;;;;;;;;;6119605;23;20165;-89
2022/08/28 00:09:24;;;;;;;19.30;8.80;;;;;;;;;;6117744;23;20173;-88
2022/08/28 00:12:30;;;;;;;16.98;8.52;;;;;;;;;;6137203;23;20156;-90
2022/08/28 00:15:39;;;;;;;13.32;8.20;;;;;;;;;;6121714;23;20220;-89
2022/08/28 00:18:44;;;;;;;13.48;7.95;;;;;;;;;;6119018;23;20168;-88
2022/08/28 00:21:49;;;;;;;12.07;7.25;;;;;;;;;;6119006;23;20173;-87
2022/08/28 00:24:54;;;;;;;11.73;7.47;;;;;;;;;;6118727;23;20177;-88
2022/08/28 00:28:00;;;;;;;13.88;8.05;;;;;;;;;;6117826;23;20169;-88
2022/08/28 00:31:07;;;;;;;12.43;8.55;;;;;;;;;;6120254;23;20190;-89
2022/08/28 00:34:12;;;;;;;12.45;8.52;;;;;;;;;;6118743;23;20173;-88
2022/08/28 00:37:17;;;;;;;12.98;7.97;;;;;;;;;;6115381;23;20190;-90
2022/08/28 00:40:24;;;;;;;15.13;9.15;;;;;;;;;;6114577;23;20217;-88
2022/08/28 00:43:35;;;;;;;38.53;19.92;;;;;;;;;;6114789;23;20189;-89
2022/08/28 00:47:00;;;;;;;16.77;9.02;;;;;;;;;;6115035;23;20174;-89
2022/08/28 00:50:08;;;;;;;12.65;8.32;;;;;;;;;;6132578;23;20621;-86
2022/08/28 00:53:12;;;;;;;16.42;8.57;;;;;;;;;;6115714;23;20488;-86
2022/08/28 00:56:17;;;;;;;15.73;7.85;;;;;;;;;;6114662;23;20617;-89
2022/08/28 00:59:24;;;;;;;13.15;8.25;;;;;;;;;;6115109;23;20595;-87
2022/08/28 01:02:30;;;;;;;15.32;8.10;;;;;;;;;;6113960;23;20621;-88
2022/08/28 01:05:37;;;;;;;14.68;8.23;;;;;;;;;;6115564;23;20173;-86
2022/08/28 01:08:44;;;;;;;13.25;7.93;;;;;;;;;;6114292;23;20617;-88
2022/08/28 01:11:51;;;;;;;17.00;7.90;;;;;;;;;;6113979;23;20628;-88
2022/08/28 01:14:58;;;;;;;15.02;7.93;;;;;;;;;;6113849;23;20169;-89
2022/08/28 01:18:08;;;;;;;16.05;8.77;;;;;;;;;;6114651;23;20169;-88
2022/08/28 01:21:17;;;;;;;14.23;9.13;;;;;;;;;;6114992;23;20304;-91
2022/08/28 01:24:25;;;;;;;16.15;8.90;;;;;;;;;;6114020;23;20264;-87
2022/08/28 01:27:30;;;;;;;17.88;9.18;;;;;;;;;;6116169;23;20173;-87
2022/08/28 01:30:35;;;;;;;14.45;8.20;;;;;;;;;;6115879;23;20509;-88
2022/08/28 01:33:41;;;;;;;12.18;8.27;;;;;;;;;;6115875;23;20244;-88
2022/08/28 01:36:47;;;;;;;14.15;8.68;;;;;;;;;;6116373;23;20177;-88
2022/08/28 01:39:54;;;;;;;15.73;8.57;;;;;;;;;;6116266;23;20205;-90
2022/08/28 01:43:06;;;;;;;12.50;8.27;;;;;;;;;;6113698;23;20197;-89
2022/08/28 01:46:37;;;;;;;14.45;8.65;;;;;;;;;;6115362;23;20617;-89
2022/08/28 01:49:42;;;;;;;14.30;7.90;;;;;;;;;;6116068;23;20168;-89
2022/08/28 01:52:47;;;;;;;11.88;8.30;;;;;;;;;;6115501;23;20193;-88
2022/08/28 01:55:55;;;;;;;13.98;8.18;;;;;;;;;;6115690;23;20181;-90
2022/08/28 01:59:01;;;;;;;13.43;8.45;;;;;;;;;;6114995;23;20271;-87
2022/08/28 02:02:09;;;;;;;13.25;8.25;;;;;;;;;;6115423;23;20191;-88
2022/08/28 02:05:14;;;;;;;13.68;7.72;;;;;;;;;;6116547;23;20193;-91
2022/08/28 02:08:20;;;;;;;12.25;8.63;;;;;;;;;;6116090;23;20211;-88
2022/08/28 02:11:28;;;;;;;15.45;8.18;;;;;;;;;;6116402;23;20169;-89
2022/08/28 02:14:33;;;;;;;11.35;7.80;;;;;;;;;;6114657;23;20169;-88
2022/08/28 02:17:38;;;;;;;15.82;8.15;;;;;;;;;;6116222;23;20621;-87
2022/08/28 02:20:43;;;;;;;12.70;8.30;;;;;;;;;;6116859;23;20285;-89
2022/08/28 02:23:48;;;;;;;14.43;7.32;;;;;;;;;;6115329;23;20196;-88
2022/08/28 02:26:55;;;;;;;13.13;7.55;;;;;;;;;;6116657;23;20185;-88
2022/08/28 02:30:00;;;;;;;16.30;8.75;;;;;;;;;;6114965;23;20525;-89
2022/08/28 02:33:05;;;;;;;14.45;7.90;;;;;;;;;;6133411;23;20157;-88
2022/08/28 02:36:12;;;;;;;11.50;7.57;;;;;;;;;;6114310;23;20605;-88
2022/08/28 02:39:16;;;;;;;13.85;8.43;;;;;;;;;;6133469;23;20168;-88
2022/08/28 02:42:22;;;;;;;15.13;8.60;;;;;;;;;;6115604;23;20170;-88
2022/08/28 02:45:27;;;;;;;13.45;7.93;;;;;;;;;;6115424;23;20169;-88
2022/08/28 02:48:34;;;;;;;12.27;7.95;;;;;;;;;;6115228;23;20250;-88
2022/08/28 02:51:39;;;;;;;12.93;8.10;;;;;;;;;;6115816;23;20582;-88
2022/08/28 02:54:45;;;;;;;14.18;8.23;;;;;;;;;;6115017;23;20169;-90
2022/08/28 02:57:53;;;;;;;16.58;8.45;;;;;;;;;;6115522;23;20198;-88
2022/08/28 03:00:58;;;;;;;16.45;8.77;;;;;;;;;;6115273;23;20197;-88
2022/08/28 03:04:04;;;;;;;13.38;8.27;;;;;;;;;;6115100;23;20648;-89
2022/08/28 03:07:12;;;;;;;13.80;8.70;;;;;;;;;;6114664;23;20513;-89
2022/08/28 03:10:17;;;;;;;14.43;8.93;;;;;;;;;;6113457;23;20176;-89
2022/08/28 03:13:23;;;;;;;17.33;8.95;;;;;;;;;;6113978;23;20169;-90
2022/08/28 03:16:28;;;;;;;12.52;7.95;;;;;;;;;;6115411;23;20254;-88
2022/08/28 03:19:33;;;;;;;11.80;7.88;;;;;;;;;;6114111;23;20298;-87
2022/08/28 03:26:03;;;;;;;16.25;8.48;;;;;;;;;;6116182;23;20166;-87
2022/08/28 03:29:10;;;;;;;14.52;8.48;;;;;;;;;;6115333;23;20177;-88
2022/08/28 03:32:15;;;;;;;14.20;8.70;;;;;;;;;;6115500;23;20169;-88
2022/08/28 03:35:20;;;;;;;13.57;8.02;;;;;;;;;;6115592;23;20248;-87
2022/08/28 03:38:25;;;;;;;14.45;8.85;;;;;;;;;;6115971;23;20177;-87
2022/08/28 03:41:31;;;;;;;15.48;8.35;;;;;;;;;;6114586;23;20625;-89
2022/08/28 03:44:39;;;;;;;14.75;8.23;;;;;;;;;;6115445;23;20185;-88
2022/08/28 03:47:45;;;;;;;13.80;7.95;;;;;;;;;;6115340;23;20177;-88
2022/08/28 03:50:51;;;;;;;18.10;8.85;;;;;;;;;;6114102;23;20177;-87
2022/08/28 03:53:56;;;;;;;19.27;8.65;;;;;;;;;;6115682;23;20173;-88
2022/08/28 03:57:01;;;;;;;15.30;8.52;;;;;;;;;;6115271;23;20601;-87
2022/08/28 04:00:09;;;;;;;13.30;8.50;;;;;;;;;;6115510;23;20499;-88
2022/08/28 04:03:21;;;;;;;15.38;8.73;;;;;;;;;;6132604;23;20177;-89
2022/08/28 04:06:26;;;;;;;13.50;8.88;;;;;;;;;;6115290;23;20306;-87
2022/08/28 04:09:31;;;;;;;15.25;8.80;;;;;;;;;;6115646;23;20161;-89
2022/08/28 04:12:36;;;;;;;15.93;8.90;;;;;;;;;;6115127;23;20173;-90
2022/08/28 04:15:43;;;;;;;16.40;8.65;;;;;;;;;;6115009;23;20165;-87
2022/08/28 04:18:49;;;;;;;15.82;8.27;;;;;;;;;;6115575;23;20177;-90
2022/08/28 04:21:54;;;;;;;13.23;8.57;;;;;;;;;;6113733;23;20172;-90
2022/08/28 04:24:59;;;;;;;11.95;7.78;;;;;;;;;;6114707;23;20332;-86
2022/08/28 04:28:04;;;;;;;15.00;8.10;;;;;;;;;;6116374;23;20341;-89
2022/08/28 04:31:11;;;;;;;14.82;8.50;;;;;;;;;;6114997;23;20938;-89
2022/08/28 04:34:16;;;;;;;15.95;8.88;;;;;;;;;;6115138;23;20335;-89
2022/08/28 04:37:22;;;;;;;15.07;9.07;;;;;;;;;;6114884;23;20271;-88
2022/08/28 04:40:28;;;;;;;15.88;9.02;;;;;;;;;;6113076;23;20173;-87
2022/08/28 04:43:33;;;;;;;12.98;8.43;;;;;;;;;;6114485;23;20173;-91
2022/08/28 04:46:39;;;;;;;13.63;8.45;;;;;;;;;;6116593;23;20173;-88
2022/08/28 04:49:43;;;;;;;13.98;8.75;;;;;;;;;;6115823;23;20169;-89
2022/08/28 04:52:48;;;;;;;14.25;8.32;;;;;;;;;;6115091;23;20169;-89
2022/08/28 04:55:54;;;;;;;16.02;9.30;;;;;;;;;;6116730;23;20157;-87
2022/08/28 04:59:01;;;;;;;14.18;9.00;;;;;;;;;;6116393;23;20172;-86
2022/08/28 05:02:07;;;;;;;18.83;8.85;;;;;;;;;;6115665;23;20212;-86
2022/08/28 05:05:12;;;;;;;14.88;8.73;;;;;;;;;;6115212;23;20244;-88
2022/08/28 05:08:18;;;;;;;18.60;8.95;;;;;;;;;;6116739;23;20213;-90
2022/08/28 05:11:24;;;;;;;18.95;10.23;;;;;;;;;;6116267;23;20172;-89
2022/08/28 05:14:30;;;;;;;15.75;10.00;;;;;;;;;;6115527;23;20173;-88
2022/08/28 05:17:36;;;;;;;13.57;9.68;;;;;;;;;;6115552;23;20172;-88
2022/08/28 05:20:46;;;;;;;18.67;9.90;;;;;;;;;;6123877;23;20177;-89
2022/08/28 05:23:55;;;;;;;16.65;9.80;;;;;;;;;;6114642;23;20205;-88
2022/08/28 05:27:00;;;;;;;16.20;9.52;;;;;;;;;;6115602;23;20184;-90
2022/08/28 05:30:06;;;;;;;16.33;9.50;;;;;;;;;;6114404;23;20297;-88
2022/08/28 05:33:13;;;;;;;20.63;10.23;;;;;;;;;;6115309;23;20309;-90
2022/08/28 05:36:18;;;;;;;16.02;9.55;;;;;;;;;;6115357;23;20676;-89
2022/08/28 05:39:23;;;;;;;13.95;9.80;;;;;;;;;;6113871;23;20240;-89
2022/08/28 05:42:29;;;;;;;18.65;9.48;;;;;;;;;;6113372;23;20318;-88
2022/08/28 05:45:33;;;;;;;13.60;9.55;;;;;;;;;;6114306;23;20272;-88
2022/08/28 05:48:40;;;;;;;16.73;9.23;;;;;;;;;;6114104;23;20189;-88
2022/08/28 05:51:46;;;;;;;19.23;11.07;;;;;;;;;;6113946;23;20205;-91
2022/08/28 05:54:51;;;;;;;16.77;10.32;;;;;;;;;;6113386;23;20233;-89
2022/08/28 05:58:27;;;;;;;16.77;10.27;;;;;;;;;;6113694;23;20192;-90
2022/08/28 06:01:26;;;;;;;18.40;10.13;;;;;;;;;;6113495;23;20301;-91
2022/08/28 06:04:32;;;;;;;24.13;10.85;;;;;;;;;;6114135;23;20713;-88
2022/08/28 06:07:37;;;;;;;23.95;10.38;;;;;;;;;;6113803;23;20194;-89
2022/08/28 06:10:43;;;;;;;22.88;10.02;;;;;;;;;;6112895;23;20505;-88
2022/08/28 06:13:49;;;;;;;18.83;10.02;;;;;;;;;;6115302;23;20177;-88
2022/08/28 06:16:55;;;;;;;21.10;9.88;;;;;;;;;;6116792;23;20170;-89
2022/08/28 06:20:01;;;;;;;17.00;10.15;;;;;;;;;;6115007;23;20173;-87
2022/08/28 06:23:07;;;;;;;21.63;10.23;;;;;;;;;;6115943;23;20189;-88
2022/08/28 06:26:12;;;;;;;17.83;10.20;;;;;;;;;;6117057;23;20197;-89
2022/08/28 06:29:18;;;;;;;21.42;10.30;;;;;;;;;;6118970;23;20178;-89
2022/08/28 06:32:23;;;;;;;23.00;11.20;;;;;;;;;;6121890;23;20189;-89
2022/08/28 06:35:33;;;;;;;18.58;10.05;;;;;;;;;;6132857;23;20168;-88
2022/08/28 06:38:45;;;;;;;27.20;10.95;;;;;;;;;;6132374;23;20198;-86
2022/08/28 06:41:52;;;;;;;23.67;10.52;;;;;;;;;;6133937;23;20168;-86
2022/08/28 06:45:04;;;;;;;19.52;10.50;;;;;;;;;;6133413;23;20198;-87
2022/08/28 06:48:22;;;;;;;19.17;10.98;;;;;;;;;;6130542;23;20173;-85
2022/08/28 06:51:30;;;;;;;18.67;10.32;;;;;;;;;;6128162;23;20190;-87
2022/08/28 06:54:39;;;;;;;20.83;9.30;;;;;;;;;;6125733;23;20290;-87
2022/08/28 06:57:45;;;;;;;20.65;10.52;;;;;;;;;;6125158;23;20192;-87
2022/08/28 07:00:51;;;;;;;20.05;10.35;;;;;;;;;;6116840;23;20196;-88
2022/08/28 07:03:58;;;;;;;19.48;11.60;;;;;;;;;;6117323;23;20210;-88
2022/08/28 07:07:04;;;;;;;16.90;9.57;;;;;;;;;;6133602;23;20232;-88
2022/08/28 07:10:10;;;;;;;15.05;9.85;;;;;;;;;;6117253;23;20214;-88
2022/08/28 07:13:15;;;;;;;19.95;10.07;;;;;;;;;;6117110;23;20180;-88
2022/08/28 07:16:21;;;;;;;20.02;10.02;;;;;;;;;;6117560;23;20173;-89
2022/08/28 07:19:27;;;;;;;19.73;9.80;;;;;;;;;;6134738;23;20181;-89
2022/08/28 07:22:33;;;;;;;16.10;9.68;;;;;;;;;;6116760;23;20176;-87
2022/08/28 07:25:50;;;;;;;16.98;9.40;;;;;;;;;;6122353;23;20192;-86
2022/08/28 07:29:03;;;;;;;15.38;10.10;;;;;;;;;;6128999;23;20168;-86
2022/08/28 07:32:08;;;;;;;15.15;9.70;;;;;;;;;;6133293;23;20174;-87
2022/08/28 07:35:19;;;;;;;17.90;9.98;;;;;;;;;;6133147;23;20230;-87
2022/08/28 07:38:28;;;;;;;16.35;9.55;;;;;;;;;;6133388;23;20186;-88
2022/08/28 15:14:45;;;;;;;7.53;3.03;;;;;;;;;;6108032;23;20218;-88
2022/08/28 15:17:50;;;;;;;6.00;2.83;;;;;;;;;;6119278;23;20293;-86
2022/08/28 15:20:55;;;;;;;7.18;2.75;;;;;;;;;;6120925;23;20173;-89
2022/08/28 15:24:01;;;;;;;8.75;2.72;;;;;;;;;;6119444;23;20221;-88
2022/08/28 15:27:06;;;;;;;11.63;3.17;;;;;;;;;;6119799;23;20169;-87
2022/08/28 15:30:13;;;;;;;5.28;2.50;;;;;;;;;;6120759;23;20173;-85
2022/08/28 15:33:18;;;;;;;5.78;2.60;;;;;;;;;;6118572;23;20234;-86
2022/08/28 15:36:24;;;;;;;4.15;2.58;;;;;;;;;;6118800;23;20154;-87
2022/08/28 15:42:56;;;;;;;8.10;2.63;;;;;;;;;;6119169;23;20541;-87
2022/08/28 15:46:10;;;;;;;6.20;2.42;;;;;;;;;;6116222;23;20664;-89
2022/08/28 15:49:18;;;;;;;4.75;2.65;;;;;;;;;;6116757;23;20186;-86
2022/08/28 15:52:23;;;;;;;4.07;2.33;;;;;;;;;;6118368;23;20512;-88
2022/08/28 15:55:29;;;;;;;12.52;2.70;;;;;;;;;;6116701;23;20308;-89
2022/08/28 15:58:35;;;;;;;8.57;3.33;;;;;;;;;;6117655;23;21114;-87
2022/08/28 16:01:42;;;;;;;5.35;2.80;;;;;;;;;;6115979;23;20173;-86
2022/08/28 16:04:48;;;;;;;6.32;3.35;;;;;;;;;;6116608;23;20217;-88
2022/08/28 16:07:53;;;;;;;4.65;3.05;;;;;;;;;;6117885;23;20455;-89
2022/08/28 16:10:58;;;;;;;8.52;3.33;;;;;;;;;;6116203;23;20289;-88
2022/08/28 16:14:04;;;;;;;4.57;2.58;;;;;;;;;;6114797;23;20196;-87
2022/08/28 16:17:11;;;;;;;9.85;4.57;;;;;;;;;;6115218;23;20156;-89
2022/08/28 16:20:17;;;;;;;7.25;3.80;;;;;;;;;;6113718;23;20177;-87
2022/08/28 16:23:22;;;;;;;8.45;3.67;;;;;;;;;;6116409;23;20242;-87
2022/08/28 16:26:27;;;;;;;5.90;3.20;;;;;;;;;;6117991;23;20241;-88
2022/08/28 16:29:32;;;;;;;4.82;3.00;;;;;;;;;;6118923;23;20247;-87
2022/08/28 16:32:39;;;;;;;5.50;3.83;;;;;;;;;;6119525;23;20218;-87
2022/08/28 16:35:45;;;;;;;6.25;2.70;;;;;;;;;;6119279;23;20185;-88
2022/08/28 16:38:50;;;;;;;7.65;2.83;;;;;;;;;;6116184;23;20177;-86
2022/08/28 16:41:55;;;;;;;12.18;3.72;;;;;;;;;;6120966;23;20617;-88
2022/08/28 16:45:00;;;;;;;4.25;2.95;;;;;;;;;;6121333;23;20613;-92
2022/08/28 16:48:07;;;;;;;6.57;2.80;;;;;;;;;;6118772;23;20213;-88
2022/08/28 16:51:13;;;;;;;6.30;2.60;;;;;;;;;;6119063;23;20173;-87
2022/08/28 16:54:19;;;;;;;5.55;2.88;;;;;;;;;;6114818;23;20169;-86
2022/08/28 16:57:24;;;;;;;6.15;3.17;;;;;;;;;;6117899;23;20177;-88
2022/08/28 17:00:29;;;;;;;5.13;2.60;;;;;;;;;;6118121;23;20169;-88
2022/08/28 17:03:36;;;;;;;6.50;2.50;;;;;;;;;;6119217;23;20173;-87
2022/08/28 17:06:44;;;;;;;3.90;2.83;;;;;;;;;;6118108;23;20200;-89
2022/08/28 17:09:49;;;;;;;5.00;2.88;;;;;;;;;;6116170;23;20170;-89
2022/08/28 17:12:54;;;;;;;6.03;2.92;;;;;;;;;;6114144;23;20212;-87
2022/08/28 17:15:59;;;;;;;6.57;2.88;;;;;;;;;;6115431;23;20188;-87
2022/08/28 17:19:05;;;;;;;8.10;2.97;;;;;;;;;;6113937;23;20173;-89
2022/08/28 17:25:33;;;;;;;5.18;3.22;;;;;;;;;;6114213;23;20669;-88
2022/08/28 17:28:38;;;;;;;4.82;2.70;;;;;;;;;;6114282;23;20197;-88
2022/08/28 17:31:43;;;;;;;5.20;2.70;;;;;;;;;;6114411;23;20169;-89
2022/08/28 17:34:50;;;;;;;6.10;2.50;;;;;;;;;;6113799;23;20276;-87
2022/08/28 17:37:55;;;;;;;6.22;2.47;;;;;;;;;;6113396;23;20174;-87
2022/08/28 17:41:04;;;;;;;6.50;3.17;;;;;;;;;;6113960;23;20513;-88
2022/08/28 17:44:10;;;;;;;7.10;3.42;;;;;;;;;;6112887;23;20253;-90
2022/08/28 17:47:15;;;;;;;9.18;3.33;;;;;;;;;;6113141;23;20196;-90
2022/08/28 17:50:21;;;;;;;5.50;2.88;;;;;;;;;;6114017;23;20652;-89
2022/08/28 17:53:26;;;;;;;4.40;2.22;;;;;;;;;;6112391;23;20173;-88
2022/08/28 17:56:32;;;;;;;3.40;2.55;;;;;;;;;;6114264;23;20182;-88
2022/08/28 17:59:37;;;;;;;4.97;2.88;;;;;;;;;;6111975;23;20177;-88
2022/08/28 18:02:46;;;;;;;5.05;3.30;;;;;;;;;;6113579;23;20218;-87
2022/08/28 18:05:53;;;;;;;6.93;3.35;;;;;;;;;;6113335;23;20200;-88
2022/08/28 18:08:58;;;;;;;5.18;3.60;;;;;;;;;;6115925;23;20172;-88
2022/08/28 18:12:05;;;;;;;5.85;3.30;;;;;;;;;;6117007;23;20196;-87
2022/08/28 18:15:12;;;;;;;7.97;3.28;;;;;;;;;;6116487;23;20641;-88
2022/08/28 18:18:17;;;;;;;10.93;4.50;;;;;;;;;;6119697;23;20165;-88
2022/08/28 18:21:24;;;;;;;5.72;3.60;;;;;;;;;;6116672;23;20548;-88
2022/08/28 18:24:28;;;;;;;7.30;3.65;;;;;;;;;;6117259;23;20170;-89
2022/08/28 18:27:33;;;;;;;9.63;3.17;;;;;;;;;;6114777;23;20212;-87
2022/08/28 18:30:40;;;;;;;6.15;3.60;;;;;;;;;;6115108;23;20165;-87
2022/08/28 18:33:45;;;;;;;7.05;3.95;;;;;;;;;;6114504;23;20270;-88
2022/08/28 18:36:52;;;;;;;8.07;3.78;;;;;;;;;;6115305;23;20199;-90
2022/08/28 18:39:57;;;;;;;8.95;3.63;;;;;;;;;;6115325;23;20173;-88
2022/08/28 18:43:02;;;;;;;8.55;3.58;;;;;;;;;;6117703;23;20491;-89
2022/08/28 18:46:08;;;;;;;7.20;3.42;;;;;;;;;;6114455;23;20200;-89
2022/08/28 18:49:13;;;;;;;7.18;3.75;;;;;;;;;;6113291;23;20169;-88
2022/08/28 18:52:20;;;;;;;8.32;3.75;;;;;;;;;;6120446;23;20160;-91
2022/08/28 18:55:27;;;;;;;9.20;3.35;;;;;;;;;;6116153;23;20172;-90
2022/08/28 18:58:33;;;;;;;9.23;3.88;;;;;;;;;;6115374;23;20629;-87
2022/08/28 19:01:38;;;;;;;10.55;4.03;;;;;;;;;;6116254;23;20169;-87
2022/08/28 19:04:44;;;;;;;9.25;3.47;;;;;;;;;;6118382;23;20177;-89
2022/08/28 19:07:51;;;;;;;10.32;3.83;;;;;;;;;;6123028;23;20189;-89
2022/08/28 19:10:56;;;;;;;14.15;3.90;;;;;;;;;;6116415;23;20177;-88
2022/08/28 19:14:01;;;;;;;8.43;3.72;;;;;;;;;;6114738;23;20177;-89
2022/08/28 19:17:06;;;;;;;8.20;3.75;;;;;;;;;;6115833;23;20253;-89
2022/08/28 19:20:12;;;;;;;6.18;3.90;;;;;;;;;;6116334;23;20169;-89
2022/08/28 19:23:19;;;;;;;8.60;4.13;;;;;;;;;;6115231;23;20672;-88
2022/08/28 19:26:26;;;;;;;6.57;3.88;;;;;;;;;;6115539;23;20197;-88
2022/08/28 19:29:31;;;;;;;8.52;4.03;;;;;;;;;;6115736;23;20641;-88
2022/08/28 19:32:36;;;;;;;9.63;3.90;;;;;;;;;;6116419;23;20264;-88
2022/08/28 19:35:41;;;;;;;12.43;3.92;;;;;;;;;;6116180;23;20302;-88
2022/08/28 19:38:48;;;;;;;7.15;4.30;;;;;;;;;;6115292;23;20557;-89
2022/08/28 19:41:52;;;;;;;7.10;4.22;;;;;;;;;;6116201;23;20177;-88
2022/08/28 19:44:57;;;;;;;12.45;4.45;;;;;;;;;;6114489;23;20177;-87
2022/08/28 19:48:03;;;;;;;8.65;4.80;;;;;;;;;;6115845;23;20201;-88
2022/08/28 19:51:09;;;;;;;8.43;4.53;;;;;;;;;;6117232;23;20173;-89
2022/08/28 19:54:15;;;;;;;12.60;5.13;;;;;;;;;;6118444;23;20184;-88
2022/08/28 19:57:22;;;;;;;10.32;4.65;;;;;;;;;;6115329;23;20348;-87
2022/08/28 20:00:28;;;;;;;11.43;5.05;;;;;;;;;;6115488;23;20165;-88
2022/08/28 20:03:35;;;;;;;12.00;5.18;;;;;;;;;;6116160;23;20278;-86
2022/08/28 20:06:40;;;;;;;9.40;5.45;;;;;;;;;;6115578;23;20193;-87
2022/08/28 20:09:46;;;;;;;12.68;5.68;;;;;;;;;;6116296;23;20157;-89
2022/08/28 20:12:52;;;;;;;12.90;5.95;;;;;;;;;;6116368;23;20169;-89
2022/08/28 20:15:57;;;;;;;12.00;5.80;;;;;;;;;;6116293;23;20224;-88
2022/08/28 20:19:02;;;;;;;11.35;6.28;;;;;;;;;;6117513;23;20169;-87
2022/08/28 20:22:08;;;;;;;10.40;5.80;;;;;;;;;;6119158;23;20169;-87
2022/08/28 20:25:16;;;;;;;12.02;5.93;;;;;;;;;;6115223;23;20218;-87
2022/08/28 20:28:22;;;;;;;9.52;5.78;;;;;;;;;;6114479;23;20201;-88
2022/08/28 20:31:27;;;;;;;11.13;4.63;;;;;;;;;;6115826;23;20173;-87
2022/08/28 20:34:31;;;;;;;14.55;6.00;;;;;;;;;;6116959;23;20570;-88
2022/08/28 20:37:37;;;;;;;10.80;5.72;;;;;;;;;;6115728;23;20273;-88
2022/08/28 20:40:43;;;;;;;11.93;5.63;;;;;;;;;;6117284;23;20197;-89
2022/08/28 20:43:48;;;;;;;10.88;5.63;;;;;;;;;;6116399;23;20168;-88
2022/08/28 20:46:54;;;;;;;9.63;5.97;;;;;;;;;;6115298;23;20193;-91
2022/08/28 20:49:59;;;;;;;11.52;6.45;;;;;;;;;;6114586;23;20188;-88
2022/08/28 20:53:08;;;;;;;12.63;6.93;;;;;;;;;;6114061;23;20173;-88
2022/08/28 20:56:14;;;;;;;11.27;6.25;;;;;;;;;;6114006;23;20216;-88
2022/08/28 20:59:20;;;;;;;10.82;5.50;;;;;;;;;;6113515;23;20173;-89
2022/08/28 21:02:25;;;;;;;13.32;7.07;;;;;;;;;;6114227;23;20176;-88
2022/08/28 21:05:31;;;;;;;11.88;5.78;;;;;;;;;;6115252;23;20177;-89
2022/08/28 21:08:36;;;;;;;14.05;6.22;;;;;;;;;;6115281;23;20169;-87
2022/08/28 21:11:43;;;;;;;11.00;5.75;;;;;;;;;;6114812;23;20282;-88
2022/08/28 21:14:48;;;;;;;9.13;4.97;;;;;;;;;;6114241;23;20192;-88
2022/08/28 21:17:53;;;;;;;11.90;5.55;;;;;;;;;;6112668;23;20633;-87
2022/08/28 21:20:58;;;;;;;14.35;6.63;;;;;;;;;;6114782;23;20173;-87
2022/08/28 21:24:04;;;;;;;17.98;6.18;;;;;;;;;;6114147;23;20229;-86
2022/08/28 21:27:10;;;;;;;12.85;6.00;;;;;;;;;;6132799;23;20197;-89
2022/08/28 21:30:17;;;;;;;11.32;5.85;;;;;;;;;;6114826;23;20169;-88
2022/08/28 21:33:22;;;;;;;13.73;5.85;;;;;;;;;;6115008;23;20239;-88
2022/08/28 21:36:27;;;;;;;16.40;6.50;;;;;;;;;;6115595;23;20210;-88
2022/08/28 21:39:32;;;;;;;17.27;6.03;;;;;;;;;;6114593;23;20618;-89
2022/08/28 21:42:38;;;;;;;11.90;5.97;;;;;;;;;;6116213;23;20177;-88
2022/08/28 21:45:43;;;;;;;13.82;6.13;;;;;;;;;;6117356;23;20220;-89
2022/08/28 21:48:49;;;;;;;20.45;7.15;;;;;;;;;;6115494;23;20220;-89
2022/08/28 21:51:55;;;;;;;13.93;6.80;;;;;;;;;;6116827;23;20149;-88
2022/08/28 21:55:01;;;;;;;11.43;5.95;;;;;;;;;;6117801;23;20173;-88
2022/08/28 21:58:07;;;;;;;15.88;8.32;;;;;;;;;;6134429;23;20637;-89
2022/08/28 22:01:14;;;;;;;13.23;7.25;;;;;;;;;;6116272;23;20165;-88
2022/08/28 22:04:21;;;;;;;17.90;9.40;;;;;;;;;;6115026;23;20173;-88
2022/08/28 22:07:27;;;;;;;23.45;9.50;;;;;;;;;;6115297;23;20196;-88
2022/08/28 22:10:32;;;;;;;39.92;10.02;;;;;;;;;;6115781;23;20165;-87
2022/08/28 22:13:38;;;;;;;29.20;10.40;;;;;;;;;;6115188;23;20173;-88
2022/08/28 22:16:44;;;;;;;73.20;11.10;;;;;;;;;;6115642;23;20173;-87
2022/08/28 22:19:49;;;;;;;36.05;10.00;;;;;;;;;;6115323;23;20499;-88
2022/08/28 22:23:08;;;;;;;76.18;10.73;;;;;;;;;;6113632;23;20173;-89
2022/08/28 22:26:14;;;;;;;41.45;10.40;;;;;;;;;;6115376;23;20198;-88
2022/08/28 22:29:21;;;;;;;66.45;10.43;;;;;;;;;;6115708;23;20173;-88
2022/08/28 22:32:26;;;;;;;72.82;10.38;;;;;;;;;;6115442;23;20192;-87
2022/08/28 22:35:31;;;;;;;63.95;10.25;;;;;;;;;;6115576;23;20248;-89
2022/08/28 22:38:36;;;;;;;58.90;10.20;;;;;;;;;;6114645;23;20189;-88
2022/08/28 22:41:42;;;;;;;47.58;10.32;;;;;;;;;;6114298;23;20311;-89
2022/08/28 22:44:48;;;;;;;47.13;9.65;;;;;;;;;;6115461;23;20294;-89
2022/08/28 22:47:53;;;;;;;131.15;11.30;;;;;;;;;;6115267;23;20197;-88
2022/08/28 22:51:02;;;;;;;43.80;10.45;;;;;;;;;;6114788;23;20588;-88
2022/08/28 22:54:08;;;;;;;59.85;9.02;;;;;;;;;;6113628;23;20169;-87
2022/08/28 22:57:12;;;;;;;31.80;8.68;;;;;;;;;;6115320;23;20249;-88
2022/08/28 23:00:22;;;;;;;23.75;8.93;;;;;;;;;;6115939;23;20252;-88
2022/08/28 23:03:27;;;;;;;89.57;10.18;;;;;;;;;;6115423;23;20249;-88
2022/08/28 23:06:32;;;;;;;50.67;9.15;;;;;;;;;;6116899;23;20673;-90
2022/08/28 23:09:37;;;;;;;28.83;8.07;;;;;;;;;;6113952;23;20503;-88
2022/08/28 23:12:43;;;;;;;31.73;7.85;;;;;;;;;;6112297;23;20156;-87
2022/08/28 23:15:50;;;;;;;57.28;6.35;;;;;;;;;;6114174;23;20304;-87
2022/08/28 23:18:55;;;;;;;50.63;6.40;;;;;;;;;;6114195;23;20169;-88
2022/08/28 23:21:59;;;;;;;73.18;8.15;;;;;;;;;;6113906;23;20304;-88
2022/08/28 23:25:04;;;;;;;99.30;7.60;;;;;;;;;;6114595;23;20189;-89
2022/08/28 23:28:09;;;;;;;28.13;7.47;;;;;;;;;;6114019;23;20192;-88
2022/08/28 23:31:15;;;;;;;41.50;7.90;;;;;;;;;;6113969;23;20209;-87
2022/08/28 23:34:20;;;;;;;26.05;7.30;;;;;;;;;;6114484;23;20235;-88
2022/08/28 23:37:26;;;;;;;83.25;8.40;;;;;;;;;;6114265;23;20177;-89
2022/08/28 23:40:31;;;;;;;18.38;8.15;;;;;;;;;;6131801;23;20508;-88
2022/08/28 23:43:36;;;;;;;19.33;7.43;;;;;;;;;;6113060;23;20165;-89
2022/08/28 23:46:43;;;;;;;31.73;7.28;;;;;;;;;;6112393;23;20270;-88
2022/08/28 23:49:48;;;;;;;26.17;7.00;;;;;;;;;;6115114;23;20236;-88
2022/08/28 23:52:53;;;;;;;27.75;7.13;;;;;;;;;;6113770;23;20244;-90
2022/08/28 23:55:58;;;;;;;19.42;7.05;;;;;;;;;;6114028;23;20173;-89
2022/08/28 23:59:03;;;;;;;23.83;7.13;;;;;;;;;;6132330;23;20241;-88
